createdAt,value
2023-12-05T00:03:53.781Z,95.14
2023-12-05T00:08:57.449Z,95.24
2023-12-05T00:14:00.316Z,95.49
2023-12-05T00:19:03.276Z,95.28
2023-12-05T00:24:06.463Z,95.10
2023-12-05T00:29:09.950Z,95.06
2023-12-05T00:34:12.881Z,95.21
2023-12-05T00:39:15.930Z,94.64
2023-12-05T00:44:18.799Z,94.47
2023-12-05T00:49:21.703Z,94.43
2023-12-05T00:54:24.678Z,94.46
2023-12-05T00:59:27.532Z,94.70
2023-12-05T01:04:30.524Z,94.62
2023-12-05T01:09:35.667Z,94.69
2023-12-05T01:14:38.772Z,94.42
2023-12-05T01:19:41.648Z,94.83
2023-12-05T01:24:44.638Z,94.84
2023-12-05T01:29:47.604Z,94.47
2023-12-05T01:34:50.570Z,94.50
2023-12-05T01:39:53.962Z,94.68
2023-12-05T01:44:56.941Z,94.66
2023-12-05T01:50:00.652Z,94.66
2023-12-05T01:55:03.890Z,94.78
2023-12-05T02:00:08.846Z,95.13
2023-12-05T02:05:12.549Z,95.35
2023-12-05T02:10:15.563Z,95.07
2023-12-05T02:15:19.356Z,95.32
2023-12-05T02:21:00.716Z,95.38
2023-12-05T02:26:30.802Z,95.11
2023-12-05T02:31:33.827Z,95.15
2023-12-05T02:37:00.954Z,94.97
2023-12-05T02:42:10.128Z,94.95
2023-12-05T02:47:15.928Z,95.08
2023-12-05T02:52:18.820Z,94.73
2023-12-05T02:57:21.692Z,94.57
2023-12-05T03:02:24.603Z,94.61
2023-12-05T03:07:28.938Z,94.50
2023-12-05T03:12:35.358Z,94.34
2023-12-05T03:17:38.589Z,94.57
2023-12-05T03:22:41.949Z,94.78
2023-12-05T03:27:47.420Z,95.19
2023-12-05T03:32:50.298Z,94.87
2023-12-05T03:37:53.163Z,94.81
2023-12-05T03:42:56.064Z,94.81
2023-12-05T03:47:59.204Z,94.99
2023-12-05T03:53:02.116Z,95.09
2023-12-05T03:58:05.447Z,94.93
2023-12-05T04:03:08.381Z,94.93
2023-12-05T04:08:11.389Z,94.88
2023-12-05T04:13:15.410Z,94.81
2023-12-05T04:18:18.585Z,94.49
2023-12-05T04:23:21.498Z,94.54
2023-12-05T04:28:24.497Z,94.57
2023-12-05T04:33:28.757Z,94.53
2023-12-05T04:38:34.031Z,94.26
2023-12-05T04:43:37.463Z,94.33
2023-12-05T04:48:40.397Z,94.72
2023-12-05T04:53:43.270Z,94.82
2023-12-05T04:58:46.123Z,94.61
2023-12-05T05:03:49.042Z,94.48
2023-12-05T05:08:53.905Z,94.35
2023-12-05T05:13:58.894Z,94.42
2023-12-05T05:19:02.785Z,94.64
2023-12-05T05:24:06.347Z,94.79
2023-12-05T05:29:09.916Z,94.93
2023-12-05T05:34:13.934Z,94.56
2023-12-05T05:39:16.989Z,94.36
2023-12-05T05:44:19.906Z,94.21
2023-12-05T05:49:23.070Z,93.90
2023-12-05T05:54:26.042Z,93.40
2023-12-05T05:59:30.235Z,93.91
2023-12-05T06:04:33.886Z,93.54
2023-12-05T06:09:38.120Z,93.32
2023-12-05T06:14:41.061Z,93.09
2023-12-05T06:19:44.022Z,92.95
2023-12-05T06:24:47.396Z,92.62
2023-12-05T06:29:50.694Z,92.53
2023-12-05T06:34:53.596Z,92.68
2023-12-05T06:39:58.219Z,92.58
2023-12-05T06:45:01.779Z,92.28
2023-12-05T06:50:12.885Z,92.04
2023-12-05T06:55:16.433Z,91.54
2023-12-05T07:00:21.000Z,91.25
2023-12-05T07:05:24.648Z,91.15
2023-12-05T07:10:28.753Z,90.40
2023-12-05T07:15:32.589Z,90.03
2023-12-05T07:20:35.924Z,90.96
2023-12-05T07:25:38.859Z,98.96
2023-12-05T07:30:41.723Z,99.46
2023-12-05T07:35:46.196Z,98.15
2023-12-05T07:40:51.018Z,97.30
2023-12-05T07:45:54.730Z,97.07
2023-12-05T07:50:59.231Z,94.50
2023-12-05T07:56:02.404Z,94.65
2023-12-05T08:01:07.146Z,96.97
2023-12-05T08:06:10.554Z,93.75
2023-12-05T08:11:13.471Z,93.57
2023-12-05T08:16:20.515Z,93.33
2023-12-05T08:21:26.457Z,92.26
2023-12-05T08:26:35.000Z,91.70
2023-12-05T08:31:41.123Z,90.17
2023-12-05T08:36:47.851Z,88.22
2023-12-05T08:41:52.802Z,86.82
2023-12-05T08:46:56.439Z,81.28
2023-12-05T08:52:00.827Z,80.71
2023-12-05T08:57:04.523Z,81.46
2023-12-05T09:02:07.521Z,82.25
2023-12-05T09:07:10.619Z,83.29
2023-12-05T09:12:13.979Z,83.81
2023-12-05T09:17:17.644Z,84.41
2023-12-05T09:22:22.334Z,84.91
2023-12-05T09:27:25.772Z,85.26
2023-12-05T09:32:28.863Z,85.45
2023-12-05T09:37:32.312Z,85.93
2023-12-05T09:42:36.511Z,86.26
2023-12-05T09:47:43.277Z,86.59
2023-12-05T09:52:46.852Z,86.97
2023-12-05T09:57:52.528Z,87.25
2023-12-05T10:02:58.476Z,87.59
2023-12-05T10:08:02.974Z,87.69
2023-12-05T10:13:07.183Z,87.72
2023-12-05T10:18:11.048Z,87.64
2023-12-05T10:23:14.378Z,87.55
2023-12-05T10:28:18.528Z,87.78
2023-12-05T10:33:31.580Z,87.99
2023-12-05T10:38:42.570Z,87.95
2023-12-05T10:43:50.589Z,87.96
2023-12-05T10:48:56.182Z,88.19
2023-12-05T10:54:01.068Z,87.89
2023-12-05T10:59:05.741Z,87.63
2023-12-05T11:04:09.276Z,87.57
2023-12-05T11:09:13.782Z,87.69
2023-12-05T11:14:18.757Z,87.72
2023-12-05T11:19:40.951Z,87.42
2023-12-05T11:25:04.595Z,86.75
2023-12-05T11:30:29.734Z,86.67
2023-12-05T11:35:43.454Z,86.64
2023-12-05T11:41:18.724Z,86.16
2023-12-05T11:46:22.518Z,85.90
2023-12-05T11:51:31.527Z,85.36
2023-12-05T11:56:39.597Z,85.32
2023-12-05T12:01:43.957Z,84.81
2023-12-05T12:06:51.718Z,84.37
2023-12-05T12:11:56.592Z,83.79
2023-12-05T12:17:08.065Z,84.18
2023-12-05T12:22:22.036Z,83.86
2023-12-05T12:27:41.206Z,84.49
2023-12-05T12:33:08.969Z,84.79
2023-12-05T12:38:12.525Z,84.90
2023-12-05T12:43:15.839Z,84.92
2023-12-05T12:48:18.817Z,85.04
2023-12-05T12:53:24.484Z,84.86
2023-12-05T12:58:35.771Z,85.15
2023-12-05T13:03:39.243Z,85.52
2023-12-05T13:08:42.998Z,86.18
2023-12-05T13:13:46.769Z,86.49
2023-12-05T13:18:49.889Z,86.78
2023-12-05T13:23:56.164Z,87.19
2023-12-05T13:28:59.653Z,87.52
2023-12-05T13:34:03.179Z,87.81
2023-12-05T13:39:11.718Z,88.15
2023-12-05T13:44:20.566Z,88.41
2023-12-05T13:49:24.280Z,88.79
2023-12-05T13:54:27.438Z,88.98
2023-12-05T13:59:34.549Z,89.22
2023-12-05T14:04:37.862Z,89.65
2023-12-05T14:09:41.066Z,89.67
2023-12-05T14:14:44.217Z,89.81
2023-12-05T14:19:49.003Z,89.98
2023-12-05T14:24:51.983Z,90.26
2023-12-05T14:29:55.060Z,90.41
2023-12-05T14:34:59.195Z,90.69
2023-12-05T14:40:02.648Z,90.93
2023-12-05T14:45:07.993Z,91.04
2023-12-05T14:50:13.685Z,91.28
2023-12-05T14:55:18.533Z,91.36
2023-12-05T15:00:21.794Z,91.41
2023-12-05T15:05:25.483Z,91.30
2023-12-05T15:10:28.544Z,91.33
2023-12-05T15:15:32.715Z,91.53
2023-12-05T15:20:37.065Z,91.54
2023-12-05T15:25:40.992Z,91.50
2023-12-05T15:30:43.988Z,91.76
2023-12-05T15:35:48.428Z,91.71
2023-12-05T15:40:51.473Z,91.64
2023-12-05T15:45:54.447Z,91.58
2023-12-05T15:50:59.286Z,91.55
2023-12-05T15:56:02.243Z,91.55
2023-12-05T16:01:06.497Z,91.54
2023-12-05T16:06:12.586Z,91.73
2023-12-05T16:11:16.750Z,91.68
2023-12-05T16:16:19.631Z,91.67
2023-12-05T16:21:22.812Z,91.64
2023-12-05T16:26:27.757Z,91.54
2023-12-05T16:31:31.312Z,91.60
2023-12-05T16:36:37.695Z,91.60
2023-12-05T16:41:40.960Z,91.57
2023-12-05T16:46:45.023Z,91.74
2023-12-05T16:51:47.947Z,91.95
2023-12-05T16:56:51.922Z,91.95
2023-12-05T17:01:54.885Z,91.72
2023-12-05T17:06:59.744Z,91.64
2023-12-05T17:12:02.977Z,91.52
2023-12-05T17:17:07.633Z,91.67
2023-12-05T17:22:12.430Z,91.67
2023-12-05T17:27:19.581Z,91.55
2023-12-05T17:32:27.698Z,91.42
2023-12-05T17:37:33.501Z,91.27
2023-12-05T17:42:36.480Z,91.26
2023-12-05T17:47:39.482Z,91.50
2023-12-05T17:52:45.704Z,91.39
2023-12-05T17:57:49.285Z,91.59
2023-12-05T18:02:52.446Z,91.76
2023-12-05T18:07:58.522Z,91.72
2023-12-05T18:13:04.124Z,91.69
2023-12-05T18:18:12.207Z,91.94
2023-12-05T18:23:15.311Z,91.98
2023-12-05T18:28:18.202Z,92.20
2023-12-05T18:33:21.881Z,92.12
2023-12-05T18:38:29.110Z,92.05
2023-12-05T18:43:34.029Z,92.15
2023-12-05T18:48:38.505Z,92.06
2023-12-05T18:53:44.238Z,92.20
2023-12-05T18:58:47.883Z,92.41
2023-12-05T19:03:51.505Z,92.46
2023-12-05T19:08:55.872Z,92.33
2023-12-05T19:13:59.347Z,92.35
2023-12-05T19:19:02.856Z,92.37
2023-12-05T19:24:05.911Z,92.40
2023-12-05T19:29:08.830Z,92.48
2023-12-05T19:34:11.782Z,92.32
2023-12-05T19:39:14.798Z,92.45
2023-12-05T19:44:18.072Z,92.69
2023-12-05T19:49:21.006Z,92.97
2023-12-05T19:54:27.176Z,93.18
2023-12-05T19:59:31.912Z,93.36
2023-12-05T20:04:35.716Z,93.40
2023-12-05T20:09:39.871Z,93.56
2023-12-05T20:14:42.855Z,93.61
2023-12-05T20:19:46.598Z,93.77
2023-12-05T20:24:49.605Z,93.69
2023-12-05T20:29:57.093Z,93.91
2023-12-05T20:35:00.449Z,93.88
2023-12-05T20:40:04.382Z,93.89
2023-12-05T20:45:07.756Z,94.29
2023-12-05T20:50:11.037Z,94.22
2023-12-05T20:55:14.100Z,94.30
2023-12-05T21:00:17.278Z,94.31
2023-12-05T21:05:23.180Z,94.36
2023-12-05T21:10:26.978Z,94.36
2023-12-05T21:15:29.810Z,94.38
2023-12-05T21:20:32.673Z,94.47
2023-12-05T21:25:35.533Z,94.46
2023-12-05T21:30:39.367Z,94.46
2023-12-05T21:35:42.265Z,94.45
2023-12-05T21:40:45.169Z,94.50
2023-12-05T21:45:48.489Z,94.42
2023-12-05T21:50:51.428Z,94.45
2023-12-05T21:55:55.208Z,94.49
2023-12-05T22:00:58.094Z,94.26
2023-12-05T22:06:01.167Z,94.20
2023-12-05T22:11:06.336Z,94.17
2023-12-05T22:16:09.704Z,94.19
2023-12-05T22:21:12.702Z,94.09
2023-12-05T22:26:17.438Z,94.16
2023-12-05T22:31:24.965Z,94.11
2023-12-05T22:36:27.868Z,93.87
2023-12-05T22:41:31.161Z,94.05
2023-12-05T22:46:34.399Z,94.28
2023-12-05T22:51:41.209Z,94.34
2023-12-05T22:56:44.511Z,94.20
2023-12-05T23:01:47.818Z,94.22
2023-12-05T23:06:50.778Z,94.34
2023-12-05T23:11:54.998Z,94.26
2023-12-05T23:16:57.831Z,94.22
2023-12-05T23:22:10.134Z,94.12
2023-12-05T23:27:13.698Z,93.98
2023-12-05T23:32:16.586Z,93.86
2023-12-05T23:37:20.138Z,94.01
2023-12-05T23:42:23.299Z,94.17
2023-12-05T23:47:26.488Z,94.12
2023-12-05T23:52:29.626Z,94.06
2023-12-05T23:57:33.018Z,93.81
